Time;durP1;ratioP1;P1;durP2;ratioP2;P2;SDS_P1;SDS_P2;PMS_P1;PMS_P2;Temp;Humidity;BMP_temperature;BMP_pressure;BME280_temperature;BME280_humidity;BME280_pressure;Samples;Min_cycle;Max_cycle;Signal;HPM_P1;HPM_P2
2023/03/14 00:02:20;;;;;;;10.63;9.90;;;12.00;99.90;;;;;;5094442;28;21035;-71
2023/03/14 00:04:47;;;;;;;11.60;10.33;;;12.00;99.90;;;;;;5097363;28;20469;-70
2023/03/14 00:07:15;;;;;;;11.27;10.10;;;12.00;99.90;;;;;;5095503;28;20461;-68
2023/03/14 00:09:42;;;;;;;22.33;20.83;;;12.10;99.90;;;;;;5092059;28;20526;-70
2023/03/14 00:12:10;;;;;;;21.63;19.60;;;11.70;99.90;;;;;;5090642;28;20472;-70
2023/03/14 00:14:37;;;;;;;18.77;17.33;;;11.20;99.90;;;;;;5091731;28;20490;-72
2023/03/14 00:17:04;;;;;;;20.80;18.70;;;11.00;99.90;;;;;;5086629;28;20454;-71
2023/03/14 00:19:30;;;;;;;17.50;15.87;;;10.70;99.90;;;;;;5097752;28;21075;-71
2023/03/14 00:21:57;;;;;;;15.60;14.40;;;10.50;99.90;;;;;;5090638;28;20482;-71
2023/03/14 00:24:25;;;;;;;16.00;14.33;;;10.10;99.90;;;;;;5093024;28;20457;-70
2023/03/14 00:26:52;;;;;;;13.20;11.73;;;9.80;99.90;;;;;;5088587;28;20527;-71
2023/03/14 00:29:19;;;;;;;11.77;10.83;;;9.60;99.90;;;;;;5090548;28;20464;-72
2023/03/14 00:31:46;;;;;;;10.80;10.03;;;9.40;99.90;;;;;;5095459;28;20454;-71
2023/03/14 00:34:14;;;;;;;10.87;9.80;;;9.40;99.90;;;;;;5085769;28;20462;-71
2023/03/14 00:36:40;;;;;;;9.60;8.80;;;9.30;99.90;;;;;;5094582;28;20473;-72
2023/03/14 00:39:07;;;;;;;8.80;8.40;;;9.20;99.90;;;;;;5090517;28;20462;-71
2023/03/14 00:41:36;;;;;;;9.37;8.50;;;9.20;99.90;;;;;;5084908;28;20737;-71
2023/03/14 00:44:02;;;;;;;9.63;9.10;;;9.20;99.90;;;;;;5098304;28;20474;-71
2023/03/14 00:46:29;;;;;;;8.60;7.70;;;9.00;99.90;;;;;;5085239;28;20462;-70
2023/03/14 00:48:56;;;;;;;10.37;8.17;;;8.90;99.90;;;;;;5086340;28;20700;-71
2023/03/14 00:51:23;;;;;;;8.10;7.60;;;8.90;99.90;;;;;;5087345;28;20561;-72
2023/03/14 00:53:50;;;;;;;10.03;8.10;;;9.00;99.90;;;;;;5090236;28;20549;-70
2023/03/14 00:56:17;;;;;;;8.10;7.60;;;9.00;99.90;;;;;;5087251;28;20478;-72
2023/03/14 00:58:45;;;;;;;8.33;7.63;;;9.00;99.90;;;;;;5102484;28;21242;-70
2023/03/14 01:01:16;;;;;;;8.00;7.40;;;9.00;99.90;;;;;;5095062;28;20469;-71
2023/03/14 01:03:43;;;;;;;9.73;7.53;;;9.10;99.90;;;;;;5094448;28;20465;-71
2023/03/14 01:06:12;;;;;;;9.00;8.33;;;9.10;99.90;;;;;;5091284;28;20474;-72
2023/03/14 01:08:40;;;;;;;7.93;7.30;;;9.10;99.90;;;;;;5090399;28;21005;-70
2023/03/14 01:11:09;;;;;;;8.57;7.60;;;9.10;99.90;;;;;;5093288;28;20462;-70
2023/03/14 01:13:36;;;;;;;11.30;7.30;;;9.10;99.90;;;;;;5095028;28;20458;-71
2023/03/14 01:16:08;;;;;;;8.57;7.37;;;9.20;99.90;;;;;;5091387;28;21025;-70
2023/03/14 01:18:35;;;;;;;8.67;7.43;;;9.20;99.90;;;;;;5091404;28;20498;-70
2023/03/14 01:21:02;;;;;;;8.10;6.73;;;9.30;99.90;;;;;;5094382;28;20480;-69
2023/03/14 01:23:29;;;;;;;12.80;7.43;;;9.40;99.90;;;;;;5096793;28;20542;-72
2023/03/14 01:25:56;;;;;;;7.23;6.63;;;9.40;99.90;;;;;;5093355;28;20466;-70
2023/03/14 01:28:24;;;;;;;7.30;6.60;;;9.40;99.90;;;;;;5096073;28;20476;-71
2023/03/14 01:30:51;;;;;;;7.33;6.70;;;9.40;99.90;;;;;;5089660;28;20507;-70
2023/03/14 01:33:19;;;;;;;9.20;6.73;;;9.40;99.90;;;;;;5091314;28;20521;-70
2023/03/14 01:35:47;;;;;;;8.40;7.60;;;9.50;99.90;;;;;;5091310;28;20469;-71
2023/03/14 01:38:13;;;;;;;8.40;7.53;;;9.50;99.90;;;;;;5091072;28;20468;-72
2023/03/14 01:40:44;;;;;;;10.33;6.93;;;9.50;99.90;;;;;;5098533;28;20462;-72
2023/03/14 01:43:16;;;;;;;14.13;6.83;;;9.50;99.90;;;;;;5095155;28;20877;-71
2023/03/14 01:46:20;;;;;;;13.17;7.60;;;9.50;99.90;;;;;;5088211;28;20476;-71
2023/03/14 01:48:55;;;;;;;7.23;6.40;;;9.50;99.90;;;;;;5090149;28;20550;-71
2023/03/14 01:51:26;;;;;;;7.90;7.10;;;9.50;99.90;;;;;;5094525;28;20460;-71
2023/03/14 01:53:55;;;;;;;9.60;6.23;;;9.50;99.90;;;;;;5094535;28;20828;-70
2023/03/14 01:56:22;;;;;;;9.97;7.20;;;9.40;99.90;;;;;;5093807;28;20504;-72
2023/03/14 01:58:53;;;;;;;7.23;6.73;;;9.40;99.90;;;;;;5096534;28;20462;-70
2023/03/14 02:01:25;;;;;;;10.03;6.60;;;9.40;99.90;;;;;;5085429;28;20471;-70
2023/03/14 02:03:57;;;;;;;7.03;6.10;;;9.40;99.90;;;;;;5093019;28;20458;-71
2023/03/14 02:06:27;;;;;;;7.47;6.20;;;9.40;99.90;;;;;;5088632;28;20970;-71
2023/03/14 02:08:54;;;;;;;10.10;6.57;;;9.30;99.90;;;;;;5089080;28;20527;-71
2023/03/14 02:11:22;;;;;;;7.37;6.57;;;9.30;99.90;;;;;;5088470;28;20511;-70
2023/03/14 02:13:50;;;;;;;10.47;7.43;;;9.30;99.90;;;;;;5097986;28;20466;-71
2023/03/14 02:16:17;;;;;;;7.87;6.10;;;9.20;99.90;;;;;;5093737;28;20489;-70
2023/03/14 02:18:44;;;;;;;7.00;6.37;;;9.30;99.90;;;;;;5096593;28;20674;-71
2023/03/14 02:21:21;;;;;;;8.93;5.83;;;9.30;99.90;;;;;;5093574;28;20461;-71
2023/03/14 02:23:56;;;;;;;5.23;4.60;;;9.40;99.90;;;;;;5082458;28;20508;-70
2023/03/14 02:26:26;;;;;;;7.33;4.33;;;9.40;99.90;;;;;;5098953;28;20519;-70
2023/03/14 02:28:55;;;;;;;10.87;4.97;;;9.50;99.90;;;;;;5093874;28;20485;-70
2023/03/14 02:31:23;;;;;;;17.53;4.63;;;9.60;99.90;;;;;;5092475;28;21000;-71
2023/03/14 02:33:51;;;;;;;6.30;3.90;;;9.60;99.90;;;;;;5091001;28;20965;-71
2023/03/14 02:36:20;;;;;;;15.97;4.30;;;9.60;99.90;;;;;;5093633;28;20481;-70
2023/03/14 02:38:52;;;;;;;8.83;3.63;;;9.70;99.90;;;;;;5089200;28;20556;-72
2023/03/14 02:41:19;;;;;;;5.13;3.60;;;9.70;99.90;;;;;;5091965;28;20453;-71
2023/03/14 02:43:46;;;;;;;5.90;3.50;;;9.80;99.90;;;;;;5100522;28;20492;-70
2023/03/14 02:46:17;;;;;;;6.70;3.70;;;9.80;99.90;;;;;;5094278;28;20480;-70
2023/03/14 02:48:46;;;;;;;13.77;3.80;;;9.90;99.90;;;;;;5086595;28;20469;-71
2023/03/14 02:51:15;;;;;;;6.17;3.70;;;9.90;99.90;;;;;;5093026;28;20507;-70
2023/03/14 02:53:42;;;;;;;11.63;6.60;;;9.90;99.90;;;;;;5100085;28;20868;-69
2023/03/14 02:56:10;;;;;;;13.20;11.80;;;9.90;99.90;;;;;;5094877;28;20498;-69
2023/03/14 02:58:37;;;;;;;13.00;12.00;;;9.90;99.90;;;;;;5091544;28;20515;-71
2023/03/14 03:01:05;;;;;;;15.50;12.40;;;9.90;99.90;;;;;;5085901;28;20446;-70
2023/03/14 03:03:33;;;;;;;14.40;13.13;;;9.80;99.90;;;;;;5091004;28;20466;-71
2023/03/14 03:06:00;;;;;;;11.80;10.90;;;9.70;99.90;;;;;;5099069;28;20559;-71
2023/03/14 03:08:28;;;;;;;16.33;12.10;;;9.70;99.90;;;;;;5096372;28;20628;-70
2023/03/14 03:10:57;;;;;;;12.17;11.00;;;9.70;99.90;;;;;;5099719;28;20498;-69
2023/03/14 03:13:23;;;;;;;17.77;10.60;;;9.60;99.90;;;;;;5093892;28;20532;-69
2023/03/14 03:15:50;;;;;;;13.00;10.80;;;9.60;99.90;;;;;;5090471;28;20849;-69
2023/03/14 03:18:17;;;;;;;10.47;9.47;;;9.60;99.90;;;;;;5097568;28;21486;-71
2023/03/14 03:20:46;;;;;;;17.47;9.63;;;9.60;99.90;;;;;;5096422;28;20512;-70
2023/03/14 03:23:13;;;;;;;23.00;9.40;;;9.60;99.90;;;;;;5093208;28;20592;-70
2023/03/14 03:25:40;;;;;;;8.17;7.40;;;9.50;99.90;;;;;;5088081;28;20459;-71
2023/03/14 03:28:07;;;;;;;11.53;9.00;;;9.50;99.90;;;;;;5090801;28;20760;-71
2023/03/14 03:30:37;;;;;;;9.40;8.30;;;9.40;99.90;;;;;;5094676;28;20483;-70
2023/03/14 03:33:05;;;;;;;14.10;8.00;;;9.30;99.90;;;;;;5095308;28;20458;-71
2023/03/14 03:35:32;;;;;;;12.20;8.43;;;9.40;99.90;;;;;;5085687;28;20843;-70
2023/03/14 03:38:00;;;;;;;10.50;8.50;;;9.40;99.90;;;;;;5093992;28;20465;-72
2023/03/14 03:40:28;;;;;;;14.67;8.90;;;9.50;99.90;;;;;;5092890;28;20449;-72
2023/03/14 03:42:55;;;;;;;10.93;8.97;;;9.50;99.90;;;;;;5098181;28;20486;-71
2023/03/14 03:45:22;;;;;;;9.43;8.50;;;9.60;99.90;;;;;;5093642;28;20458;-71
2023/03/14 03:47:49;;;;;;;10.57;7.70;;;9.60;99.90;;;;;;5090950;28;20456;-73
2023/03/14 03:50:17;;;;;;;13.57;7.80;;;9.70;99.90;;;;;;5095070;28;20458;-71
2023/03/14 03:52:43;;;;;;;14.50;8.97;;;9.60;99.90;;;;;;5086632;28;20846;-71
2023/03/14 03:55:12;;;;;;;8.03;7.33;;;9.60;99.90;;;;;;5089242;28;20957;-70
2023/03/14 03:57:39;;;;;;;10.07;7.43;;;9.70;99.90;;;;;;5088224;28;20482;-73
2023/03/14 04:00:08;;;;;;;15.73;8.40;;;9.60;99.90;;;;;;5083975;28;20531;-70
2023/03/14 04:02:36;;;;;;;8.73;7.50;;;9.60;99.90;;;;;;5094719;28;20466;-71
2023/03/14 04:05:03;;;;;;;9.43;8.40;;;9.60;99.90;;;;;;5094248;28;20465;-74
2023/03/14 04:07:32;;;;;;;13.93;7.60;;;9.60;99.90;;;;;;5088130;28;20973;-71
2023/03/14 04:09:59;;;;;;;11.60;7.40;;;9.60;99.90;;;;;;5087484;28;20496;-71
2023/03/14 04:12:27;;;;;;;7.00;6.10;;;9.60;99.90;;;;;;5091822;28;20457;-71
2023/03/14 04:14:54;;;;;;;9.43;7.40;;;9.60;99.90;;;;;;5088721;28;20898;-73
2023/03/14 04:17:21;;;;;;;7.60;7.00;;;9.60;99.90;;;;;;5086240;28;20485;-72
2023/03/14 04:19:50;;;;;;;6.90;6.40;;;9.70;99.90;;;;;;5089241;28;20975;-71
2023/03/14 04:22:17;;;;;;;6.17;5.57;;;9.60;99.90;;;;;;5094845;28;20485;-71
2023/03/14 04:24:44;;;;;;;6.83;6.20;;;9.60;99.90;;;;;;5094535;28;20466;-72
2023/03/14 04:27:11;;;;;;;5.43;5.20;;;9.60;99.90;;;;;;5086216;28;20498;-71
2023/03/14 04:29:39;;;;;;;7.23;6.57;;;9.60;99.90;;;;;;5087126;28;20599;-70
2023/03/14 04:32:06;;;;;;;7.80;6.63;;;9.50;99.90;;;;;;5088902;28;20461;-70
2023/03/14 04:34:32;;;;;;;7.10;6.60;;;9.50;99.90;;;;;;5093834;28;20461;-70
2023/03/14 04:36:59;;;;;;;6.37;6.07;;;9.50;99.90;;;;;;5095532;28;20804;-70
2023/03/14 04:39:26;;;;;;;5.87;5.67;;;9.60;99.90;;;;;;5101457;28;20461;-70
2023/03/14 04:41:53;;;;;;;7.30;6.37;;;9.50;99.90;;;;;;5101608;28;20539;-72
2023/03/14 04:44:20;;;;;;;7.80;6.33;;;9.50;99.90;;;;;;5099174;28;20463;-72
2023/03/14 04:46:48;;;;;;;5.60;5.40;;;9.40;99.90;;;;;;5092257;28;20473;-71
2023/03/14 04:49:15;;;;;;;5.73;5.53;;;9.40;99.90;;;;;;5096286;28;20744;-71
2023/03/14 04:51:42;;;;;;;5.20;5.00;;;9.40;99.90;;;;;;5091923;28;20463;-70
2023/03/14 04:54:09;;;;;;;6.23;5.80;;;9.40;99.90;;;;;;5093046;28;20462;-70
2023/03/14 04:56:37;;;;;;;5.70;5.40;;;9.40;99.90;;;;;;5097466;28;20898;-70
2023/03/14 04:59:05;;;;;;;5.60;5.20;;;9.40;99.90;;;;;;5091334;28;20453;-72
2023/03/14 05:01:33;;;;;;;5.47;5.27;;;9.40;99.90;;;;;;5095585;28;20484;-69
2023/03/14 05:04:01;;;;;;;4.83;4.63;;;9.40;99.90;;;;;;5098811;28;20960;-70
2023/03/14 05:06:28;;;;;;;5.40;5.20;;;9.50;99.90;;;;;;5090558;28;20461;-70
2023/03/14 05:08:55;;;;;;;5.27;4.87;;;9.50;99.90;;;;;;5091756;28;20468;-70
2023/03/14 05:11:22;;;;;;;4.80;4.60;;;9.50;99.90;;;;;;5100823;28;20834;-71
2023/03/14 05:13:49;;;;;;;5.57;5.37;;;9.50;99.90;;;;;;5100436;28;20520;-71
2023/03/14 05:16:16;;;;;;;6.17;5.00;;;9.50;99.90;;;;;;5093284;28;20510;-71
2023/03/14 05:18:42;;;;;;;12.20;5.83;;;9.50;99.90;;;;;;5094637;28;21040;-70
2023/03/14 05:21:10;;;;;;;6.40;6.20;;;9.40;99.90;;;;;;5093350;28;21207;-70
2023/03/14 05:23:37;;;;;;;5.87;5.67;;;9.40;99.90;;;;;;5089926;28;21000;-69
2023/03/14 05:26:04;;;;;;;6.03;5.83;;;9.50;99.90;;;;;;5095901;28;20832;-70
2023/03/14 05:28:31;;;;;;;5.63;5.43;;;9.50;99.90;;;;;;5092663;28;20847;-71
2023/03/14 05:30:58;;;;;;;5.30;5.10;;;9.50;99.90;;;;;;5087390;28;20526;-70
2023/03/14 05:33:24;;;;;;;5.90;5.70;;;9.50;99.90;;;;;;5092731;28;20552;-71
2023/03/14 05:35:52;;;;;;;5.60;5.40;;;9.40;99.90;;;;;;5093787;28;20776;-70
2023/03/14 05:38:20;;;;;;;5.53;5.33;;;9.40;99.90;;;;;;5089867;28;20988;-72
2023/03/14 05:40:47;;;;;;;5.90;5.60;;;9.30;99.90;;;;;;5099334;28;20962;-71
2023/03/14 05:43:14;;;;;;;6.30;6.00;;;9.30;99.90;;;;;;5092080;28;20484;-70
2023/03/14 05:45:42;;;;;;;5.60;5.37;;;9.30;99.90;;;;;;5090684;28;20462;-70
2023/03/14 05:48:09;;;;;;;5.30;5.10;;;9.30;99.90;;;;;;5090075;28;20972;-70
2023/03/14 05:50:36;;;;;;;5.70;5.50;;;9.40;99.90;;;;;;5097667;28;20457;-72
2023/03/14 05:53:03;;;;;;;4.70;4.60;;;9.30;99.90;;;;;;5098686;28;20834;-70
2023/03/14 05:55:31;;;;;;;5.23;5.13;;;9.30;99.90;;;;;;5097301;28;21029;-71
2023/03/14 05:57:59;;;;;;;4.93;4.83;;;9.30;99.90;;;;;;5097050;28;20497;-71
2023/03/14 06:00:26;;;;;;;5.00;4.80;;;9.40;99.90;;;;;;5090025;28;20446;-71
2023/03/14 06:02:53;;;;;;;5.80;5.60;;;9.40;99.90;;;;;;5089724;28;20904;-71
2023/03/14 06:05:20;;;;;;;5.80;5.60;;;9.40;99.90;;;;;;5096787;28;20969;-70
2023/03/14 06:07:46;;;;;;;5.73;5.37;;;9.40;99.90;;;;;;5098335;28;20470;-70
2023/03/14 06:10:14;;;;;;;5.70;5.50;;;9.40;99.90;;;;;;5100879;28;20454;-71
2023/03/14 06:12:42;;;;;;;5.47;5.27;;;9.40;99.90;;;;;;5098667;28;20457;-71
2023/03/14 06:15:10;;;;;;;5.23;5.03;;;9.40;99.90;;;;;;5092055;28;20457;-72
2023/03/14 06:17:37;;;;;;;5.00;4.80;;;9.40;99.90;;;;;;5086827;28;20559;-70
2023/03/14 06:20:04;;;;;;;4.77;4.67;;;9.50;99.90;;;;;;5096999;28;20458;-70
2023/03/14 06:22:31;;;;;;;4.40;4.30;;;9.50;99.90;;;;;;5099803;28;20482;-71
2023/03/14 06:24:58;;;;;;;5.00;4.80;;;9.50;99.90;;;;;;5091871;28;20450;-71
2023/03/14 06:27:25;;;;;;;4.40;4.20;;;9.60;99.90;;;;;;5088561;28;20560;-70
2023/03/14 06:29:53;;;;;;;4.40;4.30;;;9.60;99.90;;;;;;5093264;28;20544;-70
2023/03/14 06:32:21;;;;;;;4.20;4.10;;;9.60;99.90;;;;;;5090170;28;20461;-69
2023/03/14 06:34:48;;;;;;;4.07;3.93;;;9.70;99.90;;;;;;5090603;28;20473;-71
2023/03/14 06:37:15;;;;;;;3.77;3.67;;;9.70;99.90;;;;;;5095539;28;20498;-72
2023/03/14 06:39:43;;;;;;;4.80;4.60;;;9.80;99.90;;;;;;5094782;28;20465;-72
2023/03/14 06:42:10;;;;;;;4.40;4.27;;;9.80;99.90;;;;;;5098585;28;21037;-71
2023/03/14 06:44:37;;;;;;;5.30;5.10;;;9.80;99.90;;;;;;5091496;28;20764;-70
2023/03/14 06:47:05;;;;;;;4.40;4.20;;;9.80;99.90;;;;;;5088650;28;20917;-71
2023/03/14 06:49:32;;;;;;;4.67;4.50;;;9.80;99.90;;;;;;5086525;28;20507;-71
2023/03/14 06:51:59;;;;;;;5.17;4.97;;;9.80;99.90;;;;;;5090215;28;20584;-71
2023/03/14 06:54:26;;;;;;;4.77;4.60;;;9.80;99.90;;;;;;5099001;28;20489;-70
2023/03/14 06:56:53;;;;;;;4.83;4.63;;;9.90;99.90;;;;;;5096434;28;20481;-70
2023/03/14 06:59:19;;;;;;;4.90;4.70;;;9.90;99.90;;;;;;5093488;28;20460;-70
2023/03/14 07:01:47;;;;;;;4.73;4.57;;;9.80;99.90;;;;;;5089050;28;21046;-70
2023/03/14 07:04:16;;;;;;;3.70;3.60;;;9.90;99.90;;;;;;5092421;28;20516;-71
2023/03/14 07:06:44;;;;;;;4.10;3.90;;;10.00;99.90;;;;;;5092147;28;20458;-71
2023/03/14 07:09:11;;;;;;;4.33;3.90;;;10.10;99.90;;;;;;5091033;28;20488;-70
2023/03/14 07:11:38;;;;;;;3.17;3.07;;;10.10;99.90;;;;;;5090002;28;20845;-69
2023/03/14 07:14:05;;;;;;;4.93;4.63;;;10.30;99.90;;;;;;5092242;28;20687;-70
2023/03/14 07:16:32;;;;;;;3.30;3.20;;;10.40;99.90;;;;;;5089951;28;20470;-71
2023/03/14 07:18:59;;;;;;;3.40;3.10;;;10.40;99.90;;;;;;5080628;28;20474;-72
2023/03/14 07:21:27;;;;;;;4.10;3.90;;;10.40;99.90;;;;;;5082661;28;20464;-70
2023/03/14 07:23:54;;;;;;;3.60;3.50;;;10.40;99.90;;;;;;5083632;28;21020;-70
2023/03/14 07:26:21;;;;;;;4.03;3.93;;;10.40;99.90;;;;;;5084655;28;20462;-70
2023/03/14 07:28:48;;;;;;;4.70;4.50;;;10.40;99.90;;;;;;5086884;28;20523;-70
2023/03/14 07:31:15;;;;;;;4.50;4.30;;;10.30;99.90;;;;;;5082103;28;20470;-69
2023/03/14 07:36:38;;;;;;;4.10;3.90;;;10.40;99.90;;;;;;5086570;28;20833;-69
2023/03/14 07:39:05;;;;;;;4.40;4.20;;;10.40;99.90;;;;;;5086224;28;20506;-71
2023/03/14 07:41:32;;;;;;;4.23;3.93;;;10.40;99.90;;;;;;5088735;28;20477;-71
2023/03/14 07:43:59;;;;;;;4.07;3.87;;;10.50;99.90;;;;;;5088005;28;20463;-71
2023/03/14 07:46:26;;;;;;;3.83;3.63;;;10.60;99.90;;;;;;5090261;28;20522;-71
2023/03/14 07:48:52;;;;;;;3.50;3.33;;;10.80;99.90;;;;;;5082158;28;20557;-70
2023/03/14 07:51:19;;;;;;;3.40;3.30;;;11.00;99.90;;;;;;5089333;28;20498;-70
2023/03/14 07:53:47;;;;;;;3.80;3.43;;;11.00;99.90;;;;;;5085734;28;20476;-70
2023/03/14 07:56:14;;;;;;;3.70;3.40;;;11.10;99.90;;;;;;5084206;28;20458;-71
2023/03/14 07:58:41;;;;;;;3.50;3.20;;;11.20;99.90;;;;;;5083953;28;20882;-72
2023/03/14 08:01:08;;;;;;;3.97;3.67;;;11.30;99.90;;;;;;5084744;28;20530;-72
2023/03/14 08:03:34;;;;;;;3.90;3.70;;;11.30;99.90;;;;;;5084171;28;20492;-69
2023/03/14 08:06:01;;;;;;;4.17;3.97;;;11.30;99.90;;;;;;5092473;28;20461;-70
2023/03/14 08:08:28;;;;;;;4.43;4.13;;;11.20;99.90;;;;;;5082670;28;20986;-70
2023/03/14 08:10:56;;;;;;;3.97;3.77;;;11.20;99.90;;;;;;5083610;28;20556;-71
2023/03/14 08:13:25;;;;;;;4.00;3.80;;;11.30;99.90;;;;;;5088004;28;20461;-71
2023/03/14 08:15:52;;;;;;;3.77;3.67;;;11.30;99.90;;;;;;5096486;28;20459;-72
2023/03/14 08:18:19;;;;;;;4.00;3.80;;;11.40;99.90;;;;;;5084637;28;20494;-71
2023/03/14 08:20:45;;;;;;;4.40;4.20;;;11.40;99.90;;;;;;5085210;28;20469;-70
2023/03/14 08:23:13;;;;;;;5.07;4.70;;;11.40;99.90;;;;;;5084358;28;20473;-70
2023/03/14 08:25:41;;;;;;;5.43;5.03;;;11.30;99.90;;;;;;5092054;28;20956;-71
2023/03/14 08:30:50;;;;;;;13.83;13.03;;;11.20;99.90;;;;;;5082779;28;20577;-70
2023/03/14 08:33:16;;;;;;;12.30;11.33;;;10.90;99.90;;;;;;5088325;28;20722;-72
2023/03/14 08:35:43;;;;;;;11.70;10.77;;;10.60;99.90;;;;;;5088261;28;20461;-72
2023/03/14 08:38:10;;;;;;;36.67;11.30;;;10.40;99.90;;;;;;5085025;28;20489;-72
2023/03/14 08:40:37;;;;;;;8.10;7.80;;;10.30;99.90;;;;;;5085488;28;20545;-71
2023/03/14 08:43:04;;;;;;;9.17;8.30;;;10.10;99.90;;;;;;5087548;28;21106;-71
2023/03/14 08:45:32;;;;;;;7.93;7.63;;;10.10;99.90;;;;;;5090019;28;20464;-70
2023/03/14 08:47:59;;;;;;;8.17;7.77;;;10.20;99.90;;;;;;5086115;28;20461;-72
2023/03/14 08:50:26;;;;;;;9.03;8.53;;;10.40;99.90;;;;;;5086606;28;20472;-69
2023/03/14 08:52:53;;;;;;;8.20;7.90;;;10.40;99.90;;;;;;5082748;28;20764;-72
2023/03/14 08:55:19;;;;;;;25.43;9.00;;;10.30;99.90;;;;;;5089830;28;21067;-71
2023/03/14 08:57:47;;;;;;;7.40;7.10;;;10.10;99.90;;;;;;5087538;28;20923;-71
2023/03/14 09:00:15;;;;;;;8.13;7.83;;;9.70;99.90;;;;;;5087950;28;20462;-73
2023/03/14 09:02:43;;;;;;;8.40;8.00;;;9.40;99.90;;;;;;5088093;28;20465;-72
2023/03/14 09:05:11;;;;;;;8.43;8.03;;;9.30;99.90;;;;;;5084512;28;20450;-73
2023/03/14 09:07:39;;;;;;;8.00;7.70;;;9.10;99.90;;;;;;5081098;28;20553;-71
2023/03/14 09:10:07;;;;;;;9.00;8.60;;;8.80;99.90;;;;;;5083448;28;20460;-70
2023/03/14 09:12:34;;;;;;;8.97;8.53;;;8.30;99.90;;;;;;5085359;28;20461;-72
2023/03/14 09:15:01;;;;;;;9.63;9.03;;;8.20;99.90;;;;;;5084586;28;20844;-71
2023/03/14 09:17:28;;;;;;;8.87;8.43;;;8.20;99.90;;;;;;5084756;28;20494;-71
2023/03/14 09:19:56;;;;;;;7.90;7.60;;;8.00;99.90;;;;;;5086738;28;20531;-71
2023/03/14 09:22:22;;;;;;;8.40;8.00;;;7.90;99.90;;;;;;5091582;28;20495;-71
2023/03/14 09:24:50;;;;;;;8.17;7.77;;;7.90;99.90;;;;;;5086838;28;20864;-71
2023/03/14 09:27:16;;;;;;;7.57;7.17;;;7.90;99.90;;;;;;5089225;27;20478;-71
2023/03/14 09:29:43;;;;;;;7.80;7.40;;;7.90;99.90;;;;;;5092265;28;20511;-71
2023/03/14 09:32:10;;;;;;;7.93;7.50;;;8.00;99.90;;;;;;5091656;28;20465;-70
2023/03/14 09:34:37;;;;;;;8.37;7.90;;;8.00;99.90;;;;;;5089112;28;20535;-71
2023/03/14 09:37:05;;;;;;;8.10;7.70;;;8.10;99.90;;;;;;5089352;28;20457;-71
2023/03/14 09:39:32;;;;;;;10.17;7.63;;;8.20;99.90;;;;;;5092854;28;20461;-71
2023/03/14 09:42:05;;;;;;;8.77;8.37;;;8.20;99.90;;;;;;5093842;28;20977;-71
2023/03/14 09:44:34;;;;;;;8.63;8.20;;;8.20;99.90;;;;;;5092417;28;20461;-72
2023/03/14 09:47:05;;;;;;;9.00;8.50;;;8.00;99.90;;;;;;5090919;28;20882;-71
2023/03/14 09:49:35;;;;;;;9.17;8.67;;;7.80;99.90;;;;;;5090720;28;20457;-71
2023/03/14 09:52:05;;;;;;;9.20;8.60;;;7.70;99.90;;;;;;5089931;28;20469;-72
2023/03/14 09:54:38;;;;;;;8.00;7.50;;;7.60;99.90;;;;;;5091286;28;20952;-71
2023/03/14 09:57:10;;;;;;;8.80;8.20;;;7.60;99.90;;;;;;5088926;28;20465;-72
2023/03/14 09:59:39;;;;;;;8.37;7.87;;;7.50;99.90;;;;;;5090572;28;20474;-71
2023/03/14 10:02:17;;;;;;;8.37;7.57;;;7.40;99.90;;;;;;5088237;28;20457;-71
2023/03/14 10:04:46;;;;;;;7.50;7.10;;;7.30;99.90;;;;;;5091489;28;20836;-71
2023/03/14 10:07:15;;;;;;;7.70;7.03;;;7.40;99.90;;;;;;5091475;28;20457;-71
2023/03/14 10:09:45;;;;;;;7.47;6.90;;;7.40;99.90;;;;;;5088691;28;20462;-71
2023/03/14 10:12:13;;;;;;;7.67;7.10;;;7.50;99.90;;;;;;5086854;28;20476;-70
2023/03/14 10:14:48;;;;;;;8.87;8.00;;;7.50;99.90;;;;;;5086682;28;20570;-70
2023/03/14 10:17:16;;;;;;;29.87;12.43;;;7.60;99.90;;;;;;5090967;28;20475;-70
2023/03/14 10:19:54;;;;;;;9.33;8.53;;;7.60;99.90;;;;;;5087503;28;20457;-72
2023/03/14 10:22:21;;;;;;;8.47;7.60;;;7.60;99.90;;;;;;5085944;28;20481;-71
2023/03/14 10:24:54;;;;;;;7.63;7.20;;;7.60;99.90;;;;;;5092259;28;20465;-72
2023/03/14 10:27:22;;;;;;;6.57;6.27;;;7.60;99.90;;;;;;5092190;28;21302;-72
2023/03/14 10:29:54;;;;;;;6.60;6.20;;;7.60;99.90;;;;;;5088682;28;20520;-72
2023/03/14 10:32:22;;;;;;;6.93;6.43;;;7.70;99.90;;;;;;5087702;28;20557;-71
2023/03/14 10:35:06;;;;;;;6.33;5.83;;;7.70;99.90;;;;;;5090720;28;20467;-70
2023/03/14 10:37:33;;;;;;;6.27;5.97;;;7.80;99.90;;;;;;5086982;28;20465;-70
2023/03/14 10:40:05;;;;;;;7.07;6.57;;;7.70;99.90;;;;;;5084892;28;20802;-69
2023/03/14 10:42:34;;;;;;;7.50;6.23;;;7.60;99.90;;;;;;5092701;28;20564;-70
2023/03/14 10:45:04;;;;;;;7.23;6.67;;;7.70;99.90;;;;;;5088295;28;20547;-69
2023/03/14 10:47:33;;;;;;;7.70;7.17;;;7.90;99.90;;;;;;5091578;28;20457;-69
2023/03/14 10:50:25;;;;;;;8.77;7.87;;;8.00;99.90;;;;;;5091156;28;21097;-69
2023/03/14 10:52:54;;;;;;;8.30;7.60;;;8.00;99.90;;;;;;5082878;28;20994;-69
2023/03/14 10:55:25;;;;;;;7.67;6.87;;;8.10;99.90;;;;;;5083736;28;20465;-68
2023/03/14 10:57:53;;;;;;;7.80;6.77;;;8.30;99.90;;;;;;5085916;28;20473;-69
2023/03/14 11:00:22;;;;;;;7.83;7.33;;;8.30;99.90;;;;;;5089461;28;20470;-69
2023/03/14 11:03:04;;;;;;;8.40;7.23;;;8.40;99.90;;;;;;5089976;28;20462;-69
2023/03/14 11:05:35;;;;;;;8.10;7.70;;;8.50;99.90;;;;;;5096691;28;20806;-67
2023/03/14 11:08:07;;;;;;;5.50;5.20;;;8.30;99.90;;;;;;5088580;28;20819;-71
2023/03/14 11:10:40;;;;;;;6.00;5.50;;;7.00;99.90;;;;;;5091502;28;20459;-71
2023/03/14 11:13:16;;;;;;;4.80;4.63;;;6.50;99.90;;;;;;5088472;28;20572;-71
2023/03/14 11:15:51;;;;;;;4.70;4.40;;;6.20;99.90;;;;;;5091883;28;20468;-71
2023/03/14 11:18:47;;;;;;;5.47;5.17;;;6.20;99.90;;;;;;5088858;28;20486;-71
2023/03/14 11:21:21;;;;;;;5.30;4.93;;;6.30;99.90;;;;;;5090499;28;21132;-73
2023/03/14 11:23:56;;;;;;;5.17;4.87;;;6.30;99.90;;;;;;5088659;28;20561;-71
2023/03/14 11:26:33;;;;;;;4.67;4.47;;;6.30;99.90;;;;;;5088885;28;21051;-70
2023/03/14 11:29:09;;;;;;;5.00;4.80;;;6.30;99.90;;;;;;5089239;28;20808;-71
2023/03/14 11:31:39;;;;;;;7.60;5.13;;;6.40;99.90;;;;;;5085774;28;20461;-69
2023/03/14 11:34:14;;;;;;;5.30;5.00;;;6.50;99.90;;;;;;5090308;28;20932;-70
2023/03/14 11:36:45;;;;;;;5.40;4.97;;;6.60;99.90;;;;;;5091088;28;20456;-69
2023/03/14 11:39:16;;;;;;;5.80;5.40;;;6.70;99.90;;;;;;5085832;28;20515;-70
2023/03/14 11:41:47;;;;;;;4.53;4.33;;;6.60;99.90;;;;;;5091560;28;20992;-70
2023/03/14 11:44:19;;;;;;;6.03;5.63;;;6.70;99.90;;;;;;5082046;28;20454;-69
2023/03/14 11:46:51;;;;;;;6.57;5.97;;;6.80;99.90;;;;;;5086181;28;20492;-70
2023/03/14 11:49:27;;;;;;;5.40;5.10;;;6.80;99.90;;;;;;5085188;28;20543;-69
2023/03/14 11:51:59;;;;;;;5.93;5.50;;;6.90;99.90;;;;;;5088052;28;21100;-69
2023/03/14 11:54:33;;;;;;;5.67;5.20;;;7.00;99.90;;;;;;5088454;28;20521;-70
2023/03/14 11:57:04;;;;;;;6.03;5.60;;;6.90;99.90;;;;;;5086363;28;20987;-69
2023/03/14 11:59:36;;;;;;;6.23;5.80;;;6.90;99.90;;;;;;5083096;28;20655;-70
2023/03/14 12:02:10;;;;;;;5.70;5.30;;;6.90;99.90;;;;;;5083885;28;20454;-69
2023/03/14 12:04:48;;;;;;;5.97;5.67;;;7.00;99.90;;;;;;5091047;28;21223;-70
2023/03/14 12:07:20;;;;;;;5.70;5.50;;;6.80;99.90;;;;;;5093952;28;20472;-69
2023/03/14 12:09:49;;;;;;;6.40;5.73;;;6.80;99.90;;;;;;5091800;28;20465;-69
2023/03/14 12:12:20;;;;;;;6.30;6.00;;;6.70;99.90;;;;;;5082770;28;20859;-69
2023/03/14 12:14:54;;;;;;;7.90;6.20;;;6.80;99.90;;;;;;5085897;28;20462;-70
2023/03/14 12:17:25;;;;;;;6.60;6.30;;;6.80;99.90;;;;;;5090470;28;20463;-69
2023/03/14 12:20:03;;;;;;;6.73;6.43;;;6.80;99.90;;;;;;5087597;28;20494;-68
2023/03/14 12:22:31;;;;;;;9.30;7.83;;;6.80;99.90;;;;;;5089852;28;21252;-69
2023/03/14 12:25:03;;;;;;;7.50;6.90;;;6.90;99.90;;;;;;5089119;28;20458;-70
2023/03/14 12:27:45;;;;;;;8.17;7.47;;;7.10;99.90;;;;;;5087153;28;20889;-69
2023/03/14 12:30:29;;;;;;;8.97;8.20;;;7.70;99.90;;;;;;5085435;28;20501;-70
2023/03/14 12:33:26;;;;;;;10.47;9.87;;;8.60;99.90;;;;;;5088297;28;21019;-69
2023/03/14 12:35:59;;;;;;;13.47;12.33;;;8.70;99.90;;;;;;5086627;28;20960;-67
2023/03/14 12:38:31;;;;;;;11.80;11.17;;;8.30;99.90;;;;;;5082019;28;20484;-67
2023/03/14 12:41:04;;;;;;;10.50;9.80;;;7.90;99.90;;;;;;5082994;28;20492;-68
2023/03/14 12:43:33;;;;;;;11.53;9.57;;;8.00;99.90;;;;;;5086502;28;20825;-67
2023/03/14 12:46:25;;;;;;;9.63;8.70;;;8.30;99.90;;;;;;5093053;28;20460;-69
2023/03/14 12:48:56;;;;;;;10.47;9.53;;;8.80;99.90;;;;;;5064655;28;21075;-68
2023/03/14 12:51:31;;;;;;;11.33;10.67;;;9.00;99.90;;;;;;5088921;28;20461;-69
2023/03/14 12:54:20;;;;;;;13.50;12.10;;;9.60;99.90;;;;;;5086023;28;21075;-70
2023/03/14 12:56:57;;;;;;;14.90;13.73;;;10.10;99.90;;;;;;5091600;28;20708;-69
2023/03/14 12:59:36;;;;;;;15.27;14.07;;;10.40;99.90;;;;;;5087820;28;20473;-70
2023/03/14 13:02:23;;;;;;;16.03;14.73;;;10.10;99.90;;;;;;5097095;28;20468;-70
2023/03/14 13:04:53;;;;;;;17.50;15.50;;;9.50;99.90;;;;;;5090432;28;20526;-70
2023/03/14 13:07:59;;;;;;;16.80;15.30;;;8.80;99.90;;;;;;5092912;28;20558;-67